sensor_id;sensor_type;location;lat;lon;timestamp;P1;durP1;ratioP1;P2;durP2;ratioP2
45676;SDS011;31390;51.186;6.830;2023-03-23T00:01:03;3.53;;;1.85;;
45676;SDS011;31390;51.186;6.830;2023-03-23T00:03:29;3.80;;;1.77;;
45676;SDS011;31390;51.186;6.830;2023-03-23T00:05:57;2.47;;;1.67;;
45676;SDS011;31390;51.186;6.830;2023-03-23T00:08:24;1.70;;;1.60;;
45676;SDS011;31390;51.186;6.830;2023-03-23T00:10:51;1.65;;;1.52;;
45676;SDS011;31390;51.186;6.830;2023-03-23T00:13:26;4.13;;;1.98;;
45676;SDS011;31390;51.186;6.830;2023-03-23T00:15:52;6.53;;;1.70;;
45676;SDS011;31390;51.186;6.830;2023-03-23T00:18:18;2.15;;;1.52;;
45676;SDS011;31390;51.186;6.830;2023-03-23T00:20:49;1.50;;;1.40;;
45676;SDS011;31390;51.186;6.830;2023-03-23T00:23:19;1.48;;;1.20;;
45676;SDS011;31390;51.186;6.830;2023-03-23T00:25:46;1.98;;;1.45;;
45676;SDS011;31390;51.186;6.830;2023-03-23T00:28:12;2.92;;;1.67;;
45676;SDS011;31390;51.186;6.830;2023-03-23T00:30:38;1.85;;;1.30;;
45676;SDS011;31390;51.186;6.830;2023-03-23T00:33:04;2.53;;;1.80;;
45676;SDS011;31390;51.186;6.830;2023-03-23T00:35:30;2.08;;;1.38;;
45676;SDS011;31390;51.186;6.830;2023-03-23T00:37:56;3.00;;;1.65;;
45676;SDS011;31390;51.186;6.830;2023-03-23T00:40:21;1.85;;;1.70;;
45676;SDS011;31390;51.186;6.830;2023-03-23T00:42:47;2.63;;;1.67;;
45676;SDS011;31390;51.186;6.830;2023-03-23T00:45:13;2.13;;;1.63;;
45676;SDS011;31390;51.186;6.830;2023-03-23T00:47:40;2.13;;;1.55;;
45676;SDS011;31390;51.186;6.830;2023-03-23T00:50:07;1.75;;;1.52;;
45676;SDS011;31390;51.186;6.830;2023-03-23T00:52:32;2.67;;;1.63;;
45676;SDS011;31390;51.186;6.830;2023-03-23T00:54:58;2.20;;;1.80;;
45676;SDS011;31390;51.186;6.830;2023-03-23T00:57:24;2.70;;;1.80;;
45676;SDS011;31390;51.186;6.830;2023-03-23T00:59:52;2.83;;;1.70;;
45676;SDS011;31390;51.186;6.830;2023-03-23T01:02:18;2.50;;;1.70;;
45676;SDS011;31390;51.186;6.830;2023-03-23T01:04:44;2.85;;;1.65;;
45676;SDS011;31390;51.186;6.830;2023-03-23T01:07:10;3.15;;;2.00;;
45676;SDS011;31390;51.186;6.830;2023-03-23T01:09:38;1.73;;;1.58;;
45676;SDS011;31390;51.186;6.830;2023-03-23T01:12:11;1.75;;;1.60;;
45676;SDS011;31390;51.186;6.830;2023-03-23T01:14:36;1.75;;;1.63;;
45676;SDS011;31390;51.186;6.830;2023-03-23T01:17:02;2.33;;;2.13;;
45676;SDS011;31390;51.186;6.830;2023-03-23T01:19:27;1.73;;;1.63;;
45676;SDS011;31390;51.186;6.830;2023-03-23T01:21:53;2.45;;;1.70;;
45676;SDS011;31390;51.186;6.830;2023-03-23T01:24:18;2.50;;;1.98;;
45676;SDS011;31390;51.186;6.830;2023-03-23T01:26:44;3.00;;;2.10;;
45676;SDS011;31390;51.186;6.830;2023-03-23T01:29:10;3.17;;;2.00;;
45676;SDS011;31390;51.186;6.830;2023-03-23T01:31:35;2.20;;;2.00;;
45676;SDS011;31390;51.186;6.830;2023-03-23T01:34:03;1.90;;;1.80;;
45676;SDS011;31390;51.186;6.830;2023-03-23T01:36:29;2.97;;;1.95;;
45676;SDS011;31390;51.186;6.830;2023-03-23T01:39:00;3.20;;;2.15;;
45676;SDS011;31390;51.186;6.830;2023-03-23T01:41:28;2.78;;;2.10;;
45676;SDS011;31390;51.186;6.830;2023-03-23T01:44:06;4.78;;;2.65;;
45676;SDS011;31390;51.186;6.830;2023-03-23T01:46:44;3.90;;;2.63;;
45676;SDS011;31390;51.186;6.830;2023-03-23T01:51:43;3.53;;;2.83;;
45676;SDS011;31390;51.186;6.830;2023-03-23T01:54:11;4.22;;;3.13;;
45676;SDS011;31390;51.186;6.830;2023-03-23T01:56:39;3.25;;;3.03;;
45676;SDS011;31390;51.186;6.830;2023-03-23T01:59:07;4.68;;;3.38;;
45676;SDS011;31390;51.186;6.830;2023-03-23T02:01:32;4.32;;;3.47;;
45676;SDS011;31390;51.186;6.830;2023-03-23T02:04:02;4.80;;;4.05;;
45676;SDS011;31390;51.186;6.830;2023-03-23T02:06:28;4.10;;;3.40;;
45676;SDS011;31390;51.186;6.830;2023-03-23T02:09:04;3.90;;;3.50;;
45676;SDS011;31390;51.186;6.830;2023-03-23T02:11:33;4.75;;;3.95;;
45676;SDS011;31390;51.186;6.830;2023-03-23T02:13:59;6.05;;;4.68;;
45676;SDS011;31390;51.186;6.830;2023-03-23T02:16:29;5.20;;;3.78;;
45676;SDS011;31390;51.186;6.830;2023-03-23T02:21:35;4.35;;;3.83;;
45676;SDS011;31390;51.186;6.830;2023-03-23T02:26:54;5.47;;;4.47;;
45676;SDS011;31390;51.186;6.830;2023-03-23T02:34:20;6.07;;;5.18;;
45676;SDS011;31390;51.186;6.830;2023-03-23T02:36:57;5.45;;;4.05;;
45676;SDS011;31390;51.186;6.830;2023-03-23T02:39:29;5.28;;;4.40;;
45676;SDS011;31390;51.186;6.830;2023-03-23T02:41:56;6.50;;;4.38;;
45676;SDS011;31390;51.186;6.830;2023-03-23T02:44:23;8.77;;;5.18;;
45676;SDS011;31390;51.186;6.830;2023-03-23T02:46:51;4.50;;;4.10;;
45676;SDS011;31390;51.186;6.830;2023-03-23T02:49:17;5.43;;;3.90;;
45676;SDS011;31390;51.186;6.830;2023-03-23T02:51:45;4.80;;;4.30;;
45676;SDS011;31390;51.186;6.830;2023-03-23T02:54:12;5.45;;;3.75;;
45676;SDS011;31390;51.186;6.830;2023-03-23T02:56:38;4.65;;;4.18;;
45676;SDS011;31390;51.186;6.830;2023-03-23T02:59:11;5.57;;;4.95;;
45676;SDS011;31390;51.186;6.830;2023-03-23T03:04:24;4.65;;;4.20;;
45676;SDS011;31390;51.186;6.830;2023-03-23T03:07:49;5.68;;;5.18;;
45676;SDS011;31390;51.186;6.830;2023-03-23T03:10:04;5.60;;;4.53;;
45676;SDS011;31390;51.186;6.830;2023-03-23T03:17:51;3.50;;;3.20;;
45676;SDS011;31390;51.186;6.830;2023-03-23T03:20:18;4.60;;;4.15;;
45676;SDS011;31390;51.186;6.830;2023-03-23T03:22:44;4.55;;;4.10;;
45676;SDS011;31390;51.186;6.830;2023-03-23T03:25:11;4.82;;;4.15;;
45676;SDS011;31390;51.186;6.830;2023-03-23T03:27:44;3.63;;;3.33;;
45676;SDS011;31390;51.186;6.830;2023-03-23T03:30:17;4.20;;;3.80;;
45676;SDS011;31390;51.186;6.830;2023-03-23T03:32:46;3.88;;;3.58;;
45676;SDS011;31390;51.186;6.830;2023-03-23T03:35:14;3.20;;;2.90;;
45676;SDS011;31390;51.186;6.830;2023-03-23T03:37:40;4.93;;;4.00;;
45676;SDS011;31390;51.186;6.830;2023-03-23T03:40:08;5.65;;;3.30;;
45676;SDS011;31390;51.186;6.830;2023-03-23T03:42:38;3.67;;;3.13;;
45676;SDS011;31390;51.186;6.830;2023-03-23T03:45:04;3.20;;;2.90;;
45676;SDS011;31390;51.186;6.830;2023-03-23T03:47:30;3.25;;;2.95;;
45676;SDS011;31390;51.186;6.830;2023-03-23T03:49:56;3.22;;;2.72;;
45676;SDS011;31390;51.186;6.830;2023-03-23T03:52:23;3.95;;;2.97;;
45676;SDS011;31390;51.186;6.830;2023-03-23T03:54:48;3.05;;;2.75;;
45676;SDS011;31390;51.186;6.830;2023-03-23T03:57:14;4.03;;;2.95;;
45676;SDS011;31390;51.186;6.830;2023-03-23T03:59:58;3.13;;;2.58;;
45676;SDS011;31390;51.186;6.830;2023-03-23T04:02:44;3.08;;;2.55;;
45676;SDS011;31390;51.186;6.830;2023-03-23T04:05:13;2.60;;;2.40;;
45676;SDS011;31390;51.186;6.830;2023-03-23T04:07:40;2.30;;;2.10;;
45676;SDS011;31390;51.186;6.830;2023-03-23T04:10:08;3.58;;;2.25;;
45676;SDS011;31390;51.186;6.830;2023-03-23T04:12:35;2.67;;;2.30;;
45676;SDS011;31390;51.186;6.830;2023-03-23T04:15:30;3.30;;;2.60;;
45676;SDS011;31390;51.186;6.830;2023-03-23T04:17:55;2.40;;;2.20;;
45676;SDS011;31390;51.186;6.830;2023-03-23T04:20:23;3.67;;;2.83;;
45676;SDS011;31390;51.186;6.830;2023-03-23T04:22:49;2.35;;;2.22;;
45676;SDS011;31390;51.186;6.830;2023-03-23T04:25:16;3.15;;;2.38;;
45676;SDS011;31390;51.186;6.830;2023-03-23T04:27:47;2.40;;;2.20;;
45676;SDS011;31390;51.186;6.830;2023-03-23T04:30:20;2.30;;;1.95;;
45676;SDS011;31390;51.186;6.830;2023-03-23T04:32:54;3.45;;;2.92;;
45676;SDS011;31390;51.186;6.830;2023-03-23T04:35:23;2.92;;;2.72;;
45676;SDS011;31390;51.186;6.830;2023-03-23T04:38:03;2.80;;;2.53;;
45676;SDS011;31390;51.186;6.830;2023-03-23T04:40:28;2.92;;;2.58;;
45676;SDS011;31390;51.186;6.830;2023-03-23T04:43:03;2.05;;;1.88;;
45676;SDS011;31390;51.186;6.830;2023-03-23T04:45:54;2.42;;;2.30;;
45676;SDS011;31390;51.186;6.830;2023-03-23T04:48:28;2.85;;;2.35;;
45676;SDS011;31390;51.186;6.830;2023-03-23T04:51:06;4.53;;;2.85;;
45676;SDS011;31390;51.186;6.830;2023-03-23T04:53:32;2.97;;;2.78;;
45676;SDS011;31390;51.186;6.830;2023-03-23T04:55:58;2.83;;;2.60;;
45676;SDS011;31390;51.186;6.830;2023-03-23T04:58:25;4.18;;;3.50;;
45676;SDS011;31390;51.186;6.830;2023-03-23T05:01:13;4.53;;;4.13;;
45676;SDS011;31390;51.186;6.830;2023-03-23T05:03:47;3.40;;;3.10;;
45676;SDS011;31390;51.186;6.830;2023-03-23T05:06:13;2.80;;;2.30;;
45676;SDS011;31390;51.186;6.830;2023-03-23T05:08:39;3.30;;;3.00;;
45676;SDS011;31390;51.186;6.830;2023-03-23T05:11:05;2.90;;;2.10;;
45676;SDS011;31390;51.186;6.830;2023-03-23T05:13:34;2.33;;;2.00;;
45676;SDS011;31390;51.186;6.830;2023-03-23T05:16:03;2.20;;;2.00;;
45676;SDS011;31390;51.186;6.830;2023-03-23T05:18:30;3.38;;;2.05;;
45676;SDS011;31390;51.186;6.830;2023-03-23T05:21:03;3.53;;;2.10;;
45676;SDS011;31390;51.186;6.830;2023-03-23T05:23:33;3.33;;;2.15;;
45676;SDS011;31390;51.186;6.830;2023-03-23T05:26:09;2.33;;;2.00;;
45676;SDS011;31390;51.186;6.830;2023-03-23T05:28:35;2.53;;;2.13;;
45676;SDS011;31390;51.186;6.830;2023-03-23T05:31:06;2.33;;;2.13;;
45676;SDS011;31390;51.186;6.830;2023-03-23T05:33:32;2.90;;;2.20;;
45676;SDS011;31390;51.186;6.830;2023-03-23T05:36:03;2.30;;;2.10;;
45676;SDS011;31390;51.186;6.830;2023-03-23T05:38:37;4.25;;;2.30;;
45676;SDS011;31390;51.186;6.830;2023-03-23T05:41:05;2.60;;;2.25;;
45676;SDS011;31390;51.186;6.830;2023-03-23T05:43:37;2.53;;;1.98;;
45676;SDS011;31390;51.186;6.830;2023-03-23T05:46:23;3.50;;;2.42;;
45676;SDS011;31390;51.186;6.830;2023-03-23T05:48:50;2.70;;;2.40;;
45676;SDS011;31390;51.186;6.830;2023-03-23T05:51:19;3.17;;;2.85;;
45676;SDS011;31390;51.186;6.830;2023-03-23T05:53:46;3.03;;;2.22;;
45676;SDS011;31390;51.186;6.830;2023-03-23T05:56:15;2.65;;;2.25;;
45676;SDS011;31390;51.186;6.830;2023-03-23T05:59:00;4.43;;;2.72;;
45676;SDS011;31390;51.186;6.830;2023-03-23T06:01:29;2.58;;;2.15;;
45676;SDS011;31390;51.186;6.830;2023-03-23T06:03:55;3.17;;;2.50;;
45676;SDS011;31390;51.186;6.830;2023-03-23T06:06:28;3.60;;;2.22;;
45676;SDS011;31390;51.186;6.830;2023-03-23T06:09:09;4.30;;;2.55;;
45676;SDS011;31390;51.186;6.830;2023-03-23T06:11:45;4.32;;;2.20;;
45676;SDS011;31390;51.186;6.830;2023-03-23T06:14:33;2.95;;;2.20;;
45676;SDS011;31390;51.186;6.830;2023-03-23T06:16:59;4.15;;;2.70;;
45676;SDS011;31390;51.186;6.830;2023-03-23T06:19:25;3.72;;;2.42;;
45676;SDS011;31390;51.186;6.830;2023-03-23T06:21:58;3.97;;;2.33;;
45676;SDS011;31390;51.186;6.830;2023-03-23T06:24:47;2.70;;;1.90;;
45676;SDS011;31390;51.186;6.830;2023-03-23T06:27:18;4.72;;;2.65;;
45676;SDS011;31390;51.186;6.830;2023-03-23T06:29:44;4.22;;;2.05;;
45676;SDS011;31390;51.186;6.830;2023-03-23T06:32:10;7.25;;;2.72;;
45676;SDS011;31390;51.186;6.830;2023-03-23T06:34:37;3.53;;;2.22;;
45676;SDS011;31390;51.186;6.830;2023-03-23T06:37:23;4.25;;;2.28;;
45676;SDS011;31390;51.186;6.830;2023-03-23T06:40:04;2.08;;;1.80;;
45676;SDS011;31390;51.186;6.830;2023-03-23T06:42:40;6.80;;;2.40;;
45676;SDS011;31390;51.186;6.830;2023-03-23T06:45:34;5.85;;;2.53;;
45676;SDS011;31390;51.186;6.830;2023-03-23T06:48:37;4.15;;;2.40;;
45676;SDS011;31390;51.186;6.830;2023-03-23T06:51:04;2.53;;;2.03;;
45676;SDS011;31390;51.186;6.830;2023-03-23T06:53:31;4.65;;;2.40;;
45676;SDS011;31390;51.186;6.830;2023-03-23T06:55:59;5.00;;;2.40;;
45676;SDS011;31390;51.186;6.830;2023-03-23T06:58:25;3.78;;;1.95;;
45676;SDS011;31390;51.186;6.830;2023-03-23T07:00:55;4.22;;;2.05;;
45676;SDS011;31390;51.186;6.830;2023-03-23T07:03:26;4.50;;;2.03;;
45676;SDS011;31390;51.186;6.830;2023-03-23T07:05:53;4.38;;;2.20;;
45676;SDS011;31390;51.186;6.830;2023-03-23T07:08:21;3.35;;;1.75;;
45676;SDS011;31390;51.186;6.830;2023-03-23T07:10:53;2.53;;;1.75;;
45676;SDS011;31390;51.186;6.830;2023-03-23T07:13:23;3.60;;;2.17;;
45676;SDS011;31390;51.186;6.830;2023-03-23T07:15:55;3.88;;;1.90;;
45676;SDS011;31390;51.186;6.830;2023-03-23T07:18:20;4.25;;;2.10;;
45676;SDS011;31390;51.186;6.830;2023-03-23T07:20:48;5.53;;;1.58;;
45676;SDS011;31390;51.186;6.830;2023-03-23T07:23:15;4.70;;;1.90;;
45676;SDS011;31390;51.186;6.830;2023-03-23T07:25:45;2.30;;;1.83;;
45676;SDS011;31390;51.186;6.830;2023-03-23T07:28:17;2.38;;;1.55;;
45676;SDS011;31390;51.186;6.830;2023-03-23T07:30:44;3.67;;;1.85;;
45676;SDS011;31390;51.186;6.830;2023-03-23T07:33:10;2.97;;;1.88;;
45676;SDS011;31390;51.186;6.830;2023-03-23T07:35:36;3.15;;;1.70;;
45676;SDS011;31390;51.186;6.830;2023-03-23T07:38:12;4.03;;;1.63;;
45676;SDS011;31390;51.186;6.830;2023-03-23T07:40:39;5.05;;;1.77;;
45676;SDS011;31390;51.186;6.830;2023-03-23T07:43:14;3.55;;;1.73;;
45676;SDS011;31390;51.186;6.830;2023-03-23T07:45:58;3.30;;;1.70;;
45676;SDS011;31390;51.186;6.830;2023-03-23T07:48:31;4.88;;;2.10;;
45676;SDS011;31390;51.186;6.830;2023-03-23T07:50:57;3.50;;;1.83;;
45676;SDS011;31390;51.186;6.830;2023-03-23T07:53:23;2.60;;;1.30;;
45676;SDS011;31390;51.186;6.830;2023-03-23T07:56:08;4.65;;;1.90;;
45676;SDS011;31390;51.186;6.830;2023-03-23T07:58:51;2.65;;;1.50;;
45676;SDS011;31390;51.186;6.830;2023-03-23T08:01:17;2.30;;;1.20;;
45676;SDS011;31390;51.186;6.830;2023-03-23T08:03:58;5.03;;;1.92;;
45676;SDS011;31390;51.186;6.830;2023-03-23T08:06:34;6.88;;;1.60;;
45676;SDS011;31390;51.186;6.830;2023-03-23T08:09:22;3.92;;;1.60;;
45676;SDS011;31390;51.186;6.830;2023-03-23T08:12:14;4.07;;;1.73;;
45676;SDS011;31390;51.186;6.830;2023-03-23T08:14:58;3.53;;;1.73;;
45676;SDS011;31390;51.186;6.830;2023-03-23T08:17:36;2.22;;;1.45;;
45676;SDS011;31390;51.186;6.830;2023-03-23T08:20:14;5.18;;;1.77;;
45676;SDS011;31390;51.186;6.830;2023-03-23T08:23:02;2.78;;;1.48;;
45676;SDS011;31390;51.186;6.830;2023-03-23T08:25:28;4.68;;;1.73;;
45676;SDS011;31390;51.186;6.830;2023-03-23T08:28:15;5.32;;;1.95;;
45676;SDS011;31390;51.186;6.830;2023-03-23T08:31:10;4.63;;;1.73;;
45676;SDS011;31390;51.186;6.830;2023-03-23T08:34:05;6.43;;;2.10;;
45676;SDS011;31390;51.186;6.830;2023-03-23T08:36:41;3.38;;;1.70;;
45676;SDS011;31390;51.186;6.830;2023-03-23T08:39:35;2.90;;;1.70;;
45676;SDS011;31390;51.186;6.830;2023-03-23T08:42:15;3.83;;;2.10;;
45676;SDS011;31390;51.186;6.830;2023-03-23T08:45:11;8.85;;;2.65;;
45676;SDS011;31390;51.186;6.830;2023-03-23T08:48:02;5.75;;;2.22;;
45676;SDS011;31390;51.186;6.830;2023-03-23T08:50:40;6.32;;;2.25;;
45676;SDS011;31390;51.186;6.830;2023-03-23T08:53:25;4.00;;;2.00;;
45676;SDS011;31390;51.186;6.830;2023-03-23T08:56:14;4.13;;;1.70;;
45676;SDS011;31390;51.186;6.830;2023-03-23T08:58:59;8.98;;;2.10;;
45676;SDS011;31390;51.186;6.830;2023-03-23T09:01:41;6.22;;;2.28;;
45676;SDS011;31390;51.186;6.830;2023-03-23T09:04:24;3.30;;;1.70;;
45676;SDS011;31390;51.186;6.830;2023-03-23T09:06:56;5.45;;;2.30;;
45676;SDS011;31390;51.186;6.830;2023-03-23T09:09:23;5.28;;;1.98;;
45676;SDS011;31390;51.186;6.830;2023-03-23T09:11:48;5.15;;;2.00;;
45676;SDS011;31390;51.186;6.830;2023-03-23T09:14:15;4.25;;;2.08;;
45676;SDS011;31390;51.186;6.830;2023-03-23T09:16:40;5.18;;;2.25;;
45676;SDS011;31390;51.186;6.830;2023-03-23T09:19:06;5.10;;;2.35;;
45676;SDS011;31390;51.186;6.830;2023-03-23T09:21:33;3.72;;;2.45;;
45676;SDS011;31390;51.186;6.830;2023-03-23T09:23:59;8.50;;;2.17;;
45676;SDS011;31390;51.186;6.830;2023-03-23T09:26:26;8.63;;;2.58;;
45676;SDS011;31390;51.186;6.830;2023-03-23T09:28:52;6.90;;;2.75;;
45676;SDS011;31390;51.186;6.830;2023-03-23T09:31:18;8.02;;;2.58;;
45676;SDS011;31390;51.186;6.830;2023-03-23T09:33:45;5.55;;;2.30;;
45676;SDS011;31390;51.186;6.830;2023-03-23T09:36:11;7.80;;;2.13;;
45676;SDS011;31390;51.186;6.830;2023-03-23T09:38:39;9.20;;;2.25;;
45676;SDS011;31390;51.186;6.830;2023-03-23T09:43:35;5.22;;;2.35;;
45676;SDS011;31390;51.186;6.830;2023-03-23T09:48:43;9.30;;;2.53;;
45676;SDS011;31390;51.186;6.830;2023-03-23T09:51:14;4.75;;;2.15;;
45676;SDS011;31390;51.186;6.830;2023-03-23T09:53:44;5.68;;;2.40;;
45676;SDS011;31390;51.186;6.830;2023-03-23T09:56:12;3.65;;;1.83;;
45676;SDS011;31390;51.186;6.830;2023-03-23T09:58:45;5.53;;;2.10;;
45676;SDS011;31390;51.186;6.830;2023-03-23T10:01:55;3.95;;;1.88;;
45676;SDS011;31390;51.186;6.830;2023-03-23T10:04:07;5.88;;;1.95;;
45676;SDS011;31390;51.186;6.830;2023-03-23T10:06:34;3.78;;;1.80;;
45676;SDS011;31390;51.186;6.830;2023-03-23T10:09:00;6.45;;;2.10;;
45676;SDS011;31390;51.186;6.830;2023-03-23T10:11:37;4.13;;;1.85;;
45676;SDS011;31390;51.186;6.830;2023-03-23T10:14:09;5.32;;;2.17;;
45676;SDS011;31390;51.186;6.830;2023-03-23T10:16:38;7.82;;;1.90;;
45676;SDS011;31390;51.186;6.830;2023-03-23T10:21:40;2.90;;;0.90;;
45676;SDS011;31390;51.186;6.830;2023-03-23T10:24:10;2.95;;;1.10;;
45676;SDS011;31390;51.186;6.830;2023-03-23T10:26:39;1.75;;;0.77;;
45676;SDS011;31390;51.186;6.830;2023-03-23T10:31:33;1.73;;;0.85;;
45676;SDS011;31390;51.186;6.830;2023-03-23T10:34:02;2.78;;;1.10;;
45676;SDS011;31390;51.186;6.830;2023-03-23T10:39:28;1.67;;;0.88;;
45676;SDS011;31390;51.186;6.830;2023-03-23T10:41:54;2.70;;;1.00;;
45676;SDS011;31390;51.186;6.830;2023-03-23T10:44:21;3.05;;;1.42;;
45676;SDS011;31390;51.186;6.830;2023-03-23T10:52:09;3.92;;;1.35;;
45676;SDS011;31390;51.186;6.830;2023-03-23T10:54:39;2.00;;;1.35;;
45676;SDS011;31390;51.186;6.830;2023-03-23T10:57:13;3.35;;;1.70;;
45676;SDS011;31390;51.186;6.830;2023-03-23T10:59:45;4.72;;;1.67;;
45676;SDS011;31390;51.186;6.830;2023-03-23T11:02:15;4.25;;;1.65;;
45676;SDS011;31390;51.186;6.830;2023-03-23T11:04:44;3.22;;;1.40;;
45676;SDS011;31390;51.186;6.830;2023-03-23T11:07:24;4.05;;;1.80;;
45676;SDS011;31390;51.186;6.830;2023-03-23T11:09:51;3.40;;;2.00;;
45676;SDS011;31390;51.186;6.830;2023-03-23T11:12:18;5.03;;;2.53;;
45676;SDS011;31390;51.186;6.830;2023-03-23T11:14:44;1.95;;;1.70;;
45676;SDS011;31390;51.186;6.830;2023-03-23T11:17:25;3.92;;;1.90;;
45676;SDS011;31390;51.186;6.830;2023-03-23T11:19:52;5.22;;;2.05;;
45676;SDS011;31390;51.186;6.830;2023-03-23T11:22:24;3.40;;;2.17;;
45676;SDS011;31390;51.186;6.830;2023-03-23T11:24:52;4.60;;;3.72;;
45676;SDS011;31390;51.186;6.830;2023-03-23T11:27:17;8.75;;;3.78;;
45676;SDS011;31390;51.186;6.830;2023-03-23T11:29:55;6.03;;;3.28;;
45676;SDS011;31390;51.186;6.830;2023-03-23T11:32:25;6.90;;;3.92;;
45676;SDS011;31390;51.186;6.830;2023-03-23T11:34:57;5.53;;;3.53;;
45676;SDS011;31390;51.186;6.830;2023-03-23T11:37:29;5.55;;;3.25;;
45676;SDS011;31390;51.186;6.830;2023-03-23T11:39:58;5.68;;;3.80;;
45676;SDS011;31390;51.186;6.830;2023-03-23T11:42:26;7.72;;;4.32;;
45676;SDS011;31390;51.186;6.830;2023-03-23T11:45:16;6.25;;;3.22;;
45676;SDS011;31390;51.186;6.830;2023-03-23T11:50:28;7.15;;;3.97;;
45676;SDS011;31390;51.186;6.830;2023-03-23T11:53:20;4.30;;;3.17;;
45676;SDS011;31390;51.186;6.830;2023-03-23T11:55:53;5.78;;;3.58;;
45676;SDS011;31390;51.186;6.830;2023-03-23T11:58:20;5.45;;;3.35;;
45676;SDS011;31390;51.186;6.830;2023-03-23T12:03:12;4.55;;;3.33;;
45676;SDS011;31390;51.186;6.830;2023-03-23T12:21:52;5.82;;;3.63;;
45676;SDS011;31390;51.186;6.830;2023-03-23T12:24:39;7.47;;;3.70;;
45676;SDS011;31390;51.186;6.830;2023-03-23T12:32:21;6.47;;;3.83;;
45676;SDS011;31390;51.186;6.830;2023-03-23T12:37:34;4.22;;;3.72;;
45676;SDS011;31390;51.186;6.830;2023-03-23T12:42:38;5.93;;;4.20;;
45676;SDS011;31390;51.186;6.830;2023-03-23T12:47:32;5.15;;;3.97;;
45676;SDS011;31390;51.186;6.830;2023-03-23T12:50:24;4.80;;;4.40;;
45676;SDS011;31390;51.186;6.830;2023-03-23T12:58:32;4.47;;;4.05;;
45676;SDS011;31390;51.186;6.830;2023-03-23T13:01:06;5.72;;;4.15;;
45676;SDS011;31390;51.186;6.830;2023-03-23T13:03:38;5.90;;;3.88;;
45676;SDS011;31390;51.186;6.830;2023-03-23T13:06:08;3.75;;;3.38;;
45676;SDS011;31390;51.186;6.830;2023-03-23T13:08:56;5.30;;;3.17;;
45676;SDS011;31390;51.186;6.830;2023-03-23T13:13:56;5.40;;;3.58;;
45676;SDS011;31390;51.186;6.830;2023-03-23T13:19:03;5.78;;;4.45;;
45676;SDS011;31390;51.186;6.830;2023-03-23T13:21:30;5.57;;;4.97;;
45676;SDS011;31390;51.186;6.830;2023-03-23T13:24:07;5.25;;;4.30;;
45676;SDS011;31390;51.186;6.830;2023-03-23T13:26:37;5.57;;;4.65;;
45676;SDS011;31390;51.186;6.830;2023-03-23T13:29:14;11.82;;;4.43;;
45676;SDS011;31390;51.186;6.830;2023-03-23T13:31:43;4.82;;;4.32;;
45676;SDS011;31390;51.186;6.830;2023-03-23T13:36:38;7.20;;;5.97;;
45676;SDS011;31390;51.186;6.830;2023-03-23T13:39:05;6.60;;;5.80;;
45676;SDS011;31390;51.186;6.830;2023-03-23T13:41:45;7.10;;;5.90;;
45676;SDS011;31390;51.186;6.830;2023-03-23T13:47:07;9.80;;;8.80;;
45676;SDS011;31390;51.186;6.830;2023-03-23T13:49:44;10.25;;;9.13;;
45676;SDS011;31390;51.186;6.830;2023-03-23T13:52:36;10.15;;;8.60;;
45676;SDS011;31390;51.186;6.830;2023-03-23T13:55:16;8.05;;;6.32;;
45676;SDS011;31390;51.186;6.830;2023-03-23T13:58:09;9.45;;;6.90;;
45676;SDS011;31390;51.186;6.830;2023-03-23T14:00:46;8.65;;;6.82;;
45676;SDS011;31390;51.186;6.830;2023-03-23T14:03:14;10.93;;;8.32;;
45676;SDS011;31390;51.186;6.830;2023-03-23T14:18:41;7.25;;;1.92;;
45676;SDS011;31390;51.186;6.830;2023-03-23T14:21:17;5.13;;;2.60;;
45676;SDS011;31390;51.186;6.830;2023-03-23T14:23:46;3.70;;;1.77;;
45676;SDS011;31390;51.186;6.830;2023-03-23T14:26:12;4.97;;;2.33;;
45676;SDS011;31390;51.186;6.830;2023-03-23T14:28:40;4.65;;;2.00;;
45676;SDS011;31390;51.186;6.830;2023-03-23T14:31:15;3.38;;;2.38;;
45676;SDS011;31390;51.186;6.830;2023-03-23T14:33:41;4.45;;;2.28;;
45676;SDS011;31390;51.186;6.830;2023-03-23T14:36:07;3.35;;;2.00;;
45676;SDS011;31390;51.186;6.830;2023-03-23T14:38:32;5.00;;;2.25;;
45676;SDS011;31390;51.186;6.830;2023-03-23T14:41:02;3.58;;;2.13;;
45676;SDS011;31390;51.186;6.830;2023-03-23T14:43:28;5.50;;;2.58;;
45676;SDS011;31390;51.186;6.830;2023-03-23T14:45:54;8.05;;;2.60;;
45676;SDS011;31390;51.186;6.830;2023-03-23T14:48:21;5.18;;;2.17;;
45676;SDS011;31390;51.186;6.830;2023-03-23T14:50:56;4.15;;;2.88;;
45676;SDS011;31390;51.186;6.830;2023-03-23T14:53:25;7.80;;;3.55;;
45676;SDS011;31390;51.186;6.830;2023-03-23T14:55:52;6.15;;;3.90;;
45676;SDS011;31390;51.186;6.830;2023-03-23T14:58:19;5.60;;;3.50;;
45676;SDS011;31390;51.186;6.830;2023-03-23T15:00:58;6.65;;;3.65;;
45676;SDS011;31390;51.186;6.830;2023-03-23T15:03:24;7.20;;;3.30;;
45676;SDS011;31390;51.186;6.830;2023-03-23T15:05:54;6.20;;;3.20;;
45676;SDS011;31390;51.186;6.830;2023-03-23T15:10:51;6.88;;;3.22;;
45676;SDS011;31390;51.186;6.830;2023-03-23T15:13:17;5.80;;;2.50;;
45676;SDS011;31390;51.186;6.830;2023-03-23T15:15:43;6.03;;;2.67;;
45676;SDS011;31390;51.186;6.830;2023-03-23T15:21:11;4.53;;;2.22;;
45676;SDS011;31390;51.186;6.830;2023-03-23T15:23:40;6.47;;;2.60;;
45676;SDS011;31390;51.186;6.830;2023-03-23T15:26:06;5.43;;;2.90;;
45676;SDS011;31390;51.186;6.830;2023-03-23T15:28:33;5.78;;;2.85;;
45676;SDS011;31390;51.186;6.830;2023-03-23T15:31:03;4.93;;;2.55;;
45676;SDS011;31390;51.186;6.830;2023-03-23T15:33:39;6.35;;;3.28;;
45676;SDS011;31390;51.186;6.830;2023-03-23T15:36:06;4.22;;;2.80;;
45676;SDS011;31390;51.186;6.830;2023-03-23T15:38:32;5.32;;;3.00;;
45676;SDS011;31390;51.186;6.830;2023-03-23T15:40:59;4.00;;;2.53;;
45676;SDS011;31390;51.186;6.830;2023-03-23T15:43:26;8.43;;;3.30;;
45676;SDS011;31390;51.186;6.830;2023-03-23T15:48:21;7.55;;;3.22;;
45676;SDS011;31390;51.186;6.830;2023-03-23T15:50:47;8.68;;;3.40;;
45676;SDS011;31390;51.186;6.830;2023-03-23T15:53:18;5.15;;;2.95;;
45676;SDS011;31390;51.186;6.830;2023-03-23T15:55:44;6.55;;;3.50;;
45676;SDS011;31390;51.186;6.830;2023-03-23T15:58:10;8.73;;;3.55;;
45676;SDS011;31390;51.186;6.830;2023-03-23T16:00:37;6.30;;;2.78;;
45676;SDS011;31390;51.186;6.830;2023-03-23T16:03:05;6.20;;;3.13;;
45676;SDS011;31390;51.186;6.830;2023-03-23T16:05:33;7.07;;;3.55;;
45676;SDS011;31390;51.186;6.830;2023-03-23T16:08:00;5.75;;;3.75;;
45676;SDS011;31390;51.186;6.830;2023-03-23T16:10:27;5.03;;;3.20;;
45676;SDS011;31390;51.186;6.830;2023-03-23T16:12:53;6.68;;;3.55;;
45676;SDS011;31390;51.186;6.830;2023-03-23T16:15:20;5.30;;;3.20;;
45676;SDS011;31390;51.186;6.830;2023-03-23T16:17:47;5.65;;;3.38;;
45676;SDS011;31390;51.186;6.830;2023-03-23T16:20:22;6.78;;;3.33;;
45676;SDS011;31390;51.186;6.830;2023-03-23T16:22:50;7.22;;;3.33;;
45676;SDS011;31390;51.186;6.830;2023-03-23T16:25:16;5.65;;;3.70;;
45676;SDS011;31390;51.186;6.830;2023-03-23T16:27:44;4.32;;;2.83;;
45676;SDS011;31390;51.186;6.830;2023-03-23T16:30:27;5.93;;;2.65;;
45676;SDS011;31390;51.186;6.830;2023-03-23T16:32:54;5.90;;;2.88;;
45676;SDS011;31390;51.186;6.830;2023-03-23T16:35:23;7.00;;;2.88;;
45676;SDS011;31390;51.186;6.830;2023-03-23T16:37:50;5.25;;;2.15;;
45676;SDS011;31390;51.186;6.830;2023-03-23T16:40:37;5.45;;;2.80;;
45676;SDS011;31390;51.186;6.830;2023-03-23T16:43:04;4.47;;;2.10;;
45676;SDS011;31390;51.186;6.830;2023-03-23T16:45:34;5.90;;;2.08;;
45676;SDS011;31390;51.186;6.830;2023-03-23T16:48:01;5.15;;;2.15;;
45676;SDS011;31390;51.186;6.830;2023-03-23T16:50:28;4.03;;;2.42;;
45676;SDS011;31390;51.186;6.830;2023-03-23T16:52:55;4.68;;;2.88;;
45676;SDS011;31390;51.186;6.830;2023-03-23T16:55:22;17.65;;;12.68;;
45676;SDS011;31390;51.186;6.830;2023-03-23T16:57:48;14.15;;;6.78;;
45676;SDS011;31390;51.186;6.830;2023-03-23T17:00:15;12.95;;;10.40;;
45676;SDS011;31390;51.186;6.830;2023-03-23T17:02:46;11.13;;;5.50;;